Time;durP1;ratioP1;P1;durP2;ratioP2;P2;SDS_P1;SDS_P2;PMS_P1;PMS_P2;Temp;Humidity;BMP_temperature;BMP_pressure;BME280_temperature;BME280_humidity;BME280_pressure;Samples;Min_cycle;Max_cycle;Signal;HPM_P1;HPM_P2
2023/05/12 13:16:28;;;;;;;1.05;0.95;;;;;;;;;;7395769;19;20201;-92
2023/05/12 13:19:37;;;;;;;0.40;0.40;;;;;;;;;;7393153;19;20173;-91
2023/05/12 13:26:39;;;;;;;0.40;0.40;;;;;;;;;;7389905;19;20638;-92
2023/05/12 13:29:35;;;;;;;0.30;0.30;;;;;;;;;;7391683;19;20252;-91
2023/05/12 13:32:45;;;;;;;0.60;0.43;;;;;;;;;;7393182;19;20154;-90
2023/05/12 13:35:42;;;;;;;0.40;0.40;;;;;;;;;;7387799;19;20179;-91
2023/05/12 13:38:28;;;;;;;0.43;0.43;;;;;;;;;;7391198;19;20156;-90
2023/05/12 13:40:56;;;;;;;0.40;0.40;;;;;;;;;;7393939;19;20183;-90
2023/05/12 13:43:48;;;;;;;;;;;;;;;;;;;;;
2023/05/12 16:40:00;;;;;;;0.30;0.30;;;;;;;;;;7396861;19;20152;-88
2023/05/12 16:42:27;;;;;;;0.30;0.30;;;;;;;;;;7390154;19;20137;-90
2023/05/12 16:44:54;;;;;;;0.45;0.45;;;;;;;;;;7392310;19;20526;-90
2023/05/12 16:47:21;;;;;;;0.40;0.40;;;;;;;;;;7388887;19;20164;-92
2023/05/12 16:49:52;;;;;;;0.40;0.40;;;;;;;;;;7391129;19;20144;-90
2023/05/12 16:52:19;;;;;;;0.35;0.35;;;;;;;;;;7399174;19;20136;-92
2023/05/12 16:54:46;;;;;;;0.30;0.30;;;;;;;;;;7396641;19;20133;-91
2023/05/12 16:57:13;;;;;;;0.30;0.30;;;;;;;;;;7398996;19;20528;-92
2023/05/12 16:59:40;;;;;;;0.30;0.30;;;;;;;;;;7397575;19;20634;-92
2023/05/12 17:02:07;;;;;;;0.30;0.30;;;;;;;;;;7400980;19;20133;-90
2023/05/12 17:04:33;;;;;;;0.30;0.30;;;;;;;;;;7398920;19;20594;-89
2023/05/12 17:07:00;;;;;;;0.40;0.40;;;;;;;;;;7398568;19;20173;-90
2023/05/12 17:09:27;;;;;;;0.30;0.30;;;;;;;;;;7415120;19;20144;-89
2023/05/12 17:11:53;;;;;;;0.30;0.30;;;;;;;;;;7397170;19;20161;-90
2023/05/12 17:17:57;;;;;;;0.40;0.40;;;;;;;;;;7400651;19;20152;-91
2023/05/12 17:20:24;;;;;;;0.30;0.30;;;;;;;;;;7399914;19;20141;-91
2023/05/12 17:22:51;;;;;;;0.30;0.30;;;;;;;;;;7399622;19;20161;-92
2023/05/12 17:25:18;;;;;;;0.30;0.30;;;;;;;;;;7396967;19;20141;-90
2023/05/12 17:27:46;;;;;;;0.30;0.30;;;;;;;;;;7392583;19;20156;-92
2023/05/12 17:30:14;;;;;;;0.30;0.30;;;;;;;;;;7397431;19;20165;-92
2023/05/12 17:32:42;;;;;;;0.30;0.30;;;;;;;;;;7399016;19;20151;-92
2023/05/12 17:35:09;;;;;;;0.20;0.20;;;;;;;;;;7395053;19;20161;-92
2023/05/12 17:37:37;;;;;;;0.30;0.30;;;;;;;;;;7397084;19;20157;-93
2023/05/12 17:40:06;;;;;;;0.30;0.30;;;;;;;;;;7398002;19;20140;-90
2023/05/12 17:42:33;;;;;;;0.30;0.30;;;;;;;;;;7397629;19;20628;-90
2023/05/12 17:45:00;;;;;;;0.30;0.30;;;;;;;;;;7393324;19;20140;-90
2023/05/12 17:47:27;;;;;;;0.30;0.30;;;;;;;;;;7395193;19;20165;-90
2023/05/12 17:49:54;;;;;;;0.40;0.40;;;;;;;;;;7395057;19;20597;-90
2023/05/12 17:52:21;;;;;;;0.30;0.30;;;;;;;;;;7396187;19;20644;-90
2023/05/12 17:54:48;;;;;;;0.40;0.40;;;;;;;;;;7396615;19;20141;-90
2023/05/12 17:57:15;;;;;;;0.30;0.30;;;;;;;;;;7394977;19;20270;-90
2023/05/12 17:59:41;;;;;;;0.30;0.30;;;;;;;;;;7394685;19;20161;-90
2023/05/12 18:02:08;;;;;;;0.30;0.30;;;;;;;;;;7391832;19;20141;-91
2023/05/12 18:04:35;;;;;;;0.30;0.30;;;;;;;;;;7390858;19;20140;-90
2023/05/12 18:07:01;;;;;;;0.30;0.30;;;;;;;;;;7392209;19;20160;-91
2023/05/12 18:09:29;;;;;;;0.40;0.40;;;;;;;;;;7390106;19;20137;-91
2023/05/12 18:11:56;;;;;;;0.47;0.47;;;;;;;;;;7386781;19;20164;-91
2023/05/12 18:14:23;;;;;;;0.30;0.30;;;;;;;;;;7380996;19;20171;-91
2023/05/12 18:16:50;;;;;;;0.40;0.40;;;;;;;;;;7391265;19;20217;-91
2023/05/12 18:19:30;;;;;;;0.38;0.38;;;;;;;;;;7395364;19;20137;-89
2023/05/12 18:21:59;;;;;;;0.30;0.30;;;;;;;;;;7395452;19;20144;-89
2023/05/12 18:24:26;;;;;;;0.50;0.50;;;;;;;;;;7394613;19;20148;-89
2023/05/12 18:26:52;;;;;;;0.30;0.30;;;;;;;;;;7394984;19;20602;-90
2023/05/12 18:29:19;;;;;;;0.30;0.30;;;;;;;;;;7396197;19;20137;-90
2023/05/12 18:31:45;;;;;;;0.30;0.30;;;;;;;;;;7393086;19;20495;-89
2023/05/12 18:34:13;;;;;;;0.82;0.82;;;;;;;;;;7395872;19;20623;-88
2023/05/12 18:36:40;;;;;;;0.47;0.47;;;;;;;;;;7397196;19;20173;-88
2023/05/12 18:39:14;;;;;;;0.30;0.30;;;;;;;;;;7397253;19;20141;-91
2023/05/12 18:41:42;;;;;;;0.30;0.30;;;;;;;;;;7395919;19;20148;-90
2023/05/12 18:44:09;;;;;;;0.30;0.30;;;;;;;;;;7394019;19;20145;-90
2023/05/12 18:46:35;;;;;;;0.40;0.40;;;;;;;;;;7395917;19;20181;-89
2023/05/12 18:49:29;;;;;;;0.20;0.20;;;;;;;;;;7397477;19;20141;-90
2023/05/12 18:52:00;;;;;;;0.30;0.30;;;;;;;;;;7390529;19;20137;-91
2023/05/12 18:54:27;;;;;;;0.30;0.30;;;;;;;;;;7392166;19;20144;-91
2023/05/12 18:56:54;;;;;;;0.43;0.43;;;;;;;;;;7380578;19;20298;-91
2023/05/12 18:59:20;;;;;;;0.40;0.40;;;;;;;;;;7391394;19;20192;-91
2023/05/12 19:01:47;;;;;;;0.50;0.50;;;;;;;;;;7390470;19;20232;-90
2023/05/12 19:04:15;;;;;;;0.47;0.47;;;;;;;;;;7391364;19;20192;-91
2023/05/12 19:06:59;;;;;;;0.60;0.60;;;;;;;;;;7398979;19;20204;-92
2023/05/12 19:09:25;;;;;;;0.30;0.30;;;;;;;;;;7392165;19;20188;-90
2023/05/12 19:11:52;;;;;;;0.30;0.30;;;;;;;;;;7389857;19;20192;-90
2023/05/12 19:14:20;;;;;;;0.30;0.30;;;;;;;;;;7398071;19;20248;-93
2023/05/12 19:16:46;;;;;;;0.47;0.47;;;;;;;;;;7401313;19;20661;-91
2023/05/12 19:19:13;;;;;;;3.10;0.50;;;;;;;;;;7398235;19;20666;-91
2023/05/12 19:21:40;;;;;;;0.75;0.75;;;;;;;;;;7398301;19;20192;-90
2023/05/12 19:24:07;;;;;;;0.30;0.30;;;;;;;;;;7398035;19;20216;-90
2023/05/12 19:26:35;;;;;;;0.30;0.30;;;;;;;;;;7400471;19;20660;-91
2023/05/12 19:29:03;;;;;;;0.40;0.40;;;;;;;;;;7415157;19;20217;-91
2023/05/12 19:31:30;;;;;;;0.30;0.30;;;;;;;;;;7432052;19;20190;-94
2023/05/12 19:33:56;;;;;;;0.30;0.30;;;;;;;;;;7430960;19;20192;-95
2023/05/12 19:36:23;;;;;;;0.30;0.30;;;;;;;;;;7431026;19;20216;-96
2023/05/12 19:38:50;;;;;;;0.30;0.30;;;;;;;;;;7430350;19;20184;-96
2023/05/12 19:41:16;;;;;;;0.75;0.40;;;;;;;;;;7430044;19;20504;-96
2023/05/12 19:43:43;;;;;;;0.40;0.40;;;;;;;;;;7428617;19;20741;-94
2023/05/12 19:46:10;;;;;;;0.50;0.50;;;;;;;;;;7428696;19;20188;-94
2023/05/12 19:48:37;;;;;;;0.30;0.30;;;;;;;;;;7427056;19;20192;-94
2023/05/12 19:51:04;;;;;;;0.50;0.50;;;;;;;;;;7398565;19;20204;-94
2023/05/12 19:53:32;;;;;;;0.40;0.40;;;;;;;;;;7394177;19;20189;-91
2023/05/12 19:56:13;;;;;;;0.38;0.38;;;;;;;;;;7374451;19;20196;-89
2023/05/12 19:58:40;;;;;;;0.30;0.30;;;;;;;;;;7397756;19;20197;-89
2023/05/12 20:01:07;;;;;;;0.50;0.50;;;;;;;;;;7398407;19;20188;-89
2023/05/12 20:03:36;;;;;;;0.30;0.30;;;;;;;;;;7393779;19;20192;-90
2023/05/12 20:06:03;;;;;;;0.30;0.30;;;;;;;;;;7395037;19;20203;-90
2023/05/12 20:08:30;;;;;;;0.30;0.30;;;;;;;;;;7396553;19;20207;-90
2023/05/12 20:10:57;;;;;;;0.45;0.45;;;;;;;;;;7386003;19;20221;-89
2023/05/12 20:13:23;;;;;;;0.73;0.73;;;;;;;;;;7394271;19;20180;-93
2023/05/12 20:15:50;;;;;;;0.55;0.55;;;;;;;;;;7392901;19;20205;-93
2023/05/12 20:18:17;;;;;;;0.40;0.40;;;;;;;;;;7395428;19;20224;-92
2023/05/12 20:20:43;;;;;;;0.40;0.40;;;;;;;;;;7395605;19;20988;-93
2023/05/12 20:23:10;;;;;;;0.30;0.30;;;;;;;;;;7393154;19;20185;-91
2023/05/12 20:25:36;;;;;;;0.40;0.40;;;;;;;;;;7390222;19;20188;-93
2023/05/12 20:28:03;;;;;;;0.50;0.50;;;;;;;;;;7394523;19;20200;-91
2023/05/12 20:30:30;;;;;;;0.30;0.30;;;;;;;;;;7397920;19;20184;-93
2023/05/12 20:32:56;;;;;;;0.30;0.30;;;;;;;;;;7395324;19;20197;-93
2023/05/12 20:35:23;;;;;;;0.60;0.60;;;;;;;;;;7395752;19;20557;-92
2023/05/12 20:37:50;;;;;;;0.30;0.30;;;;;;;;;;7392777;19;20200;-93
2023/05/12 20:40:17;;;;;;;0.30;0.30;;;;;;;;;;7395931;19;20184;-93
2023/05/12 20:42:46;;;;;;;0.30;0.30;;;;;;;;;;7394065;19;20223;-92
2023/05/12 20:45:14;;;;;;;0.30;0.30;;;;;;;;;;7394283;19;20192;-92
2023/05/12 20:47:41;;;;;;;0.40;0.40;;;;;;;;;;7393298;19;20279;-92
2023/05/12 20:50:08;;;;;;;0.33;0.33;;;;;;;;;;7396867;19;20661;-92
2023/05/12 20:52:39;;;;;;;0.50;0.50;;;;;;;;;;7395397;19;20705;-92
2023/05/12 20:55:07;;;;;;;0.30;0.30;;;;;;;;;;7395643;19;20197;-92
2023/05/12 20:57:34;;;;;;;0.30;0.30;;;;;;;;;;7395900;19;20228;-92
2023/05/12 21:00:01;;;;;;;0.70;0.70;;;;;;;;;;7395266;19;20223;-92
2023/05/12 21:02:28;;;;;;;0.30;0.30;;;;;;;;;;7396571;19;20200;-92
2023/05/12 21:04:55;;;;;;;0.30;0.30;;;;;;;;;;7397402;19;20211;-92
2023/05/12 21:07:21;;;;;;;0.30;0.30;;;;;;;;;;7394341;19;20221;-93
2023/05/12 21:09:48;;;;;;;4.13;0.90;;;;;;;;;;7393610;19;20190;-93
2023/05/12 21:12:15;;;;;;;0.30;0.30;;;;;;;;;;7394071;19;20209;-91
2023/05/12 21:14:42;;;;;;;0.30;0.30;;;;;;;;;;7394469;19;20217;-93
2023/05/12 21:17:09;;;;;;;0.30;0.30;;;;;;;;;;7391692;19;20200;-93
2023/05/12 21:19:38;;;;;;;0.33;0.33;;;;;;;;;;7396074;19;20184;-90
2023/05/12 21:22:05;;;;;;;0.43;0.43;;;;;;;;;;7392621;19;20184;-91
2023/05/12 21:24:32;;;;;;;0.30;0.30;;;;;;;;;;7393889;19;20575;-91
2023/05/12 21:27:03;;;;;;;0.70;0.70;;;;;;;;;;7392635;19;20229;-91
2023/05/12 21:29:31;;;;;;;0.33;0.33;;;;;;;;;;7395040;19;20604;-89
2023/05/12 21:31:58;;;;;;;0.60;0.60;;;;;;;;;;7393306;19;20686;-92
2023/05/12 21:34:25;;;;;;;0.40;0.40;;;;;;;;;;7394631;19;20186;-93
2023/05/12 21:36:52;;;;;;;0.50;0.50;;;;;;;;;;7393017;19;20189;-92
2023/05/12 21:39:18;;;;;;;0.30;0.30;;;;;;;;;;7377374;19;20567;-93
